Time;durP1;ratioP1;P1;durP2;ratioP2;P2;SDS_P1;SDS_P2;PMS_P1;PMS_P2;Temp;Humidity;BMP_temperature;BMP_pressure;BME280_temperature;BME280_humidity;BME280_pressure;Samples;Min_cycle;Max_cycle;Signal;HPM_P1;HPM_P2
2022/08/01 00:00:04;;;;;;;;;;;29.60;30.90;;;;;;669407;29;992;-95
2022/08/01 00:00:32;;;;;;;;;;;29.60;31.40;;;;;;667509;29;1363;-96
2022/08/01 00:01:19;;;;;;;;;;;29.70;31.80;;;;;;668309;29;1306;-96
2022/08/01 00:01:48;;;;;;;;;;;29.70;31.80;;;;;;665863;29;1130;-95
2022/08/01 00:02:08;;;;;;;;;;;29.70;30.90;;;;;;665922;29;1429;-94
2022/08/01 00:02:32;;;;;;;;;;;29.70;31.00;;;;;;662960;29;1244;-95
2022/08/01 00:02:53;;;;;;;;;;;29.70;31.40;;;;;;663042;29;1156;-95
2022/08/01 00:03:15;;;;;;;;;;;29.60;31.40;;;;;;664186;29;1328;-95
2022/08/01 00:03:36;;;;;;;;;;;29.90;32.50;;;;;;664755;29;1349;-96
2022/08/01 00:03:56;;;;;;;;;;;29.60;31.10;;;;;;664679;29;1209;-96
2022/08/01 00:04:17;;;;;;;;;;;29.60;31.10;;;;;;663575;29;1249;-96
2022/08/01 00:04:39;;;;;;;;;;;29.60;31.00;;;;;;663399;29;1157;-95
2022/08/01 00:05:02;;;;;;;;;;;29.60;31.00;;;;;;662803;29;1229;-94
2022/08/01 00:05:26;;;;;;;;;;;29.70;31.10;;;;;;663696;29;1362;-95
2022/08/01 00:05:47;;;;;;;;;;;29.60;31.10;;;;;;664371;29;1300;-96
2022/08/01 00:06:08;;;;;;;;;;;29.70;31.00;;;;;;662756;29;1355;-95
2022/08/01 00:06:28;;;;;;;;;;;29.70;31.20;;;;;;665743;29;1231;-95
2022/08/01 00:06:49;;;;;;;;;;;29.70;31.20;;;;;;665562;29;1196;-95
2022/08/01 00:07:10;;;;;;;;;;;29.70;31.00;;;;;;664884;29;1243;-94
2022/08/01 00:07:31;;;;;;;;;;;29.60;31.10;;;;;;665638;29;1251;-96
2022/08/01 00:07:51;;;;;;;;;;;29.70;31.00;;;;;;665196;29;1136;-95
2022/08/01 00:08:13;;;;;;;;;;;29.70;31.00;;;;;;665289;29;1311;-94
2022/08/01 00:08:34;;;;;;;;;;;29.70;31.00;;;;;;665496;29;1456;-94
2022/08/01 00:08:55;;;;;;;;;;;29.70;31.00;;;;;;665474;29;1353;-95
2022/08/01 00:09:15;;;;;;;;;;;29.70;31.00;;;;;;665109;29;1186;-95
2022/08/01 00:09:39;;;;;;;;;;;29.70;31.10;;;;;;667427;29;1214;-94
2022/08/01 00:10:05;;;;;;;;;;;29.70;31.30;;;;;;664836;29;1103;-94
2022/08/01 00:10:26;;;;;;;;;;;29.70;31.10;;;;;;663245;29;1316;-95
2022/08/01 00:10:47;;;;;;;;;;;29.70;31.00;;;;;;661909;29;1178;-96
2022/08/01 00:11:09;;;;;;;;;;;29.70;31.00;;;;;;663093;29;1376;-96
2022/08/01 00:11:29;;;;;;;;;;;29.70;31.00;;;;;;662928;29;1221;-94
2022/08/01 00:11:50;;;;;;;;;;;29.70;30.90;;;;;;662069;29;1123;-95
2022/08/01 00:12:11;;;;;;;;;;;29.70;31.20;;;;;;660467;29;1351;-95
2022/08/01 00:12:31;;;;;;;;;;;;;;;;;;660362;29;1408;-95
2022/08/01 00:12:54;;;;;;;;;;;29.70;30.90;;;;;;663080;29;1288;-94
2022/08/01 00:13:17;;;;;;;;;;;29.70;30.90;;;;;;663379;29;1107;-95
2022/08/01 00:13:38;;;;;;;;;;;29.70;31.00;;;;;;664681;29;1384;-95
2022/08/01 00:13:59;;;;;;;;;;;29.70;31.30;;;;;;662731;29;1402;-96
2022/08/01 00:14:20;;;;;;;;;;;29.70;30.90;;;;;;663000;29;1234;-96
2022/08/01 00:14:40;;;;;;;;;;;29.60;30.80;;;;;;662229;29;1261;-96
2022/08/01 00:15:02;;;;;;;;;;;29.70;31.30;;;;;;665313;29;1425;-96
2022/08/01 00:15:23;;;;;;;;;;;29.70;31.10;;;;;;665355;29;1287;-96
2022/08/01 00:15:43;;;;;;;;;;;29.70;31.00;;;;;;665179;29;1232;-95
2022/08/01 00:16:04;;;;;;;;;;;29.70;31.10;;;;;;665803;29;1301;-96
2022/08/01 00:16:29;;;;;;;;;;;29.70;31.00;;;;;;665966;29;1478;-96
2022/08/01 00:16:57;;;;;;;;;;;29.70;31.10;;;;;;665838;29;1250;-96
2022/08/01 00:17:40;;;;;;;;;;;29.70;31.20;;;;;;668009;29;1049;-96
2022/08/01 00:18:02;;;;;;;;;;;29.70;31.20;;;;;;663973;29;1217;-96
2022/08/01 00:18:29;;;;;;;;;;;29.70;31.10;;;;;;666138;29;1316;-96
2022/08/01 00:18:53;;;;;;;;;;;29.70;30.90;;;;;;665588;29;941;-96
2022/08/01 00:19:20;;;;;;;;;;;29.70;31.20;;;;;;665869;29;1125;-96
2022/08/01 00:19:45;;;;;;;;;;;29.70;31.00;;;;;;666205;29;1326;-96
2022/08/01 00:20:31;;;;;;;;;;;29.70;31.20;;;;;;665360;29;1234;-96
2022/08/01 00:20:57;;;;;;;;;;;29.70;31.00;;;;;;668360;29;1222;-96
2022/08/01 00:21:18;;;;;;;;;;;29.70;31.20;;;;;;668724;29;1460;-96
2022/08/01 00:21:52;;;;;;;;;;;29.60;30.90;;;;;;663962;29;1290;-96
2022/08/01 00:22:29;;;;;;;;;;;29.60;31.00;;;;;;666110;29;939;-96
2022/08/01 00:23:18;;;;;;;;;;;29.60;31.10;;;;;;666753;29;1162;-96
2022/08/01 00:23:49;;;;;;;;;;;29.70;31.20;;;;;;669236;29;1034;-96
2022/08/01 00:24:42;;;;;;;;;;;29.70;31.10;;;;;;668767;29;1066;-96
2022/08/01 00:25:11;;;;;;;;;;;29.60;31.20;;;;;;668736;29;1342;-96
2022/08/01 00:25:35;;;;;;;;;;;29.70;31.30;;;;;;669877;29;1503;-96
2022/08/01 00:26:00;;;;;;;;;;;29.60;31.20;;;;;;669511;29;1450;-96
2022/08/01 00:26:35;;;;;;;;;;;27.70;29.90;;;;;;669593;29;1436;-96
2022/08/01 00:28:56;;;;;;;;;;;29.60;31.10;;;;;;710250;23;1761;-96
2022/08/01 00:29:22;;;;;;;;;;;29.60;31.20;;;;;;694857;28;1161;-96
2022/08/01 00:29:43;;;;;;;;;;;29.70;31.70;;;;;;692122;28;1264;-96
2022/08/01 00:30:11;;;;;;;;;;;29.60;31.60;;;;;;689642;28;1207;-96
2022/08/01 00:32:14;;;;;;;;;;;29.60;31.10;;;;;;687693;28;1452;-95
2022/08/01 00:32:35;;;;;;;;;;;29.60;31.20;;;;;;687019;28;1375;-96
2022/08/01 00:33:19;;;;;;;;;;;29.60;31.30;;;;;;690178;28;1151;-95
2022/08/01 00:33:47;;;;;;;;;;;31.80;34.20;;;;;;682757;29;1331;-96
2022/08/01 00:34:09;;;;;;;;;;;29.60;31.70;;;;;;682362;29;1720;-95
2022/08/01 00:38:46;;;;;;;;;;;29.60;32.10;;;;;;673623;29;789;-96
2022/08/01 00:39:36;;;;;;;;;;;29.50;31.70;;;;;;668128;29;924;-96
2022/08/01 00:40:14;;;;;;;;;;;;;;;;;;761601;22;1881;-96
2022/08/01 00:40:39;;;;;;;;;;;29.60;31.80;;;;;;692656;28;1639;-96
2022/08/01 00:41:09;;;;;;;;;;;29.60;31.70;;;;;;695799;28;1235;-95
2022/08/01 00:42:01;;;;;;;;;;;29.60;31.80;;;;;;687546;28;1173;-96
2022/08/01 00:42:28;;;;;;;;;;;29.60;31.80;;;;;;685039;29;1593;-96
2022/08/01 00:43:23;;;;;;;;;;;29.50;31.70;;;;;;688009;28;1380;-95
2022/08/01 00:43:44;;;;;;;;;;;29.60;31.80;;;;;;686785;28;1237;-95
2022/08/01 00:44:05;;;;;;;;;;;29.60;31.70;;;;;;686284;28;1248;-94
2022/08/01 00:44:26;;;;;;;;;;;29.40;31.60;;;;;;683855;29;1359;-96
2022/08/01 00:44:46;;;;;;;;;;;29.50;31.80;;;;;;685094;29;1226;-95
2022/08/01 00:45:07;;;;;;;;;;;29.50;32.00;;;;;;686460;29;1222;-94
2022/08/01 00:45:28;;;;;;;;;;;29.50;32.00;;;;;;687261;28;1222;-94
2022/08/01 00:45:49;;;;;;;;;;;29.60;31.90;;;;;;686831;29;1238;-94
2022/08/01 00:46:09;;;;;;;;;;;29.50;31.80;;;;;;686635;28;1279;-94
2022/08/01 00:46:30;;;;;;;;;;;29.50;31.80;;;;;;684151;29;1320;-92
2022/08/01 00:46:51;;;;;;;;;;;29.50;32.00;;;;;;684178;28;1293;-93
2022/08/01 00:47:12;;;;;;;;;;;29.50;31.90;;;;;;684125;28;1249;-95
2022/08/01 00:47:32;;;;;;;;;;;29.50;31.70;;;;;;682020;29;1224;-94
2022/08/01 00:47:53;;;;;;;;;;;29.50;32.00;;;;;;681959;29;1317;-94
2022/08/01 00:48:13;;;;;;;;;;;29.50;32.00;;;;;;684600;28;1167;-95
2022/08/01 00:48:34;;;;;;;;;;;29.50;32.00;;;;;;684115;28;1207;-94
2022/08/01 00:48:55;;;;;;;;;;;29.40;32.00;;;;;;684516;29;1227;-91
2022/08/01 00:49:16;;;;;;;;;;;29.50;32.30;;;;;;686576;28;1125;-94
2022/08/01 00:49:36;;;;;;;;;;;29.60;32.20;;;;;;684587;28;1364;-95
2022/08/01 00:49:57;;;;;;;;;;;29.50;32.10;;;;;;684169;28;1303;-96
2022/08/01 00:50:18;;;;;;;;;;;29.50;32.00;;;;;;684125;28;1323;-95
2022/08/01 00:50:38;;;;;;;;;;;29.50;32.10;;;;;;683823;29;1112;-95
2022/08/01 00:50:59;;;;;;;;;;;29.50;32.30;;;;;;686742;28;1262;-96
2022/08/01 00:51:20;;;;;;;;;;;29.50;32.10;;;;;;689396;28;1344;-93
2022/08/01 00:51:41;;;;;;;;;;;29.50;32.10;;;;;;689416;28;1202;-91
2022/08/01 00:52:02;;;;;;;;;;;29.50;32.10;;;;;;686890;28;1215;-95
2022/08/01 00:52:23;;;;;;;;;;;29.50;32.00;;;;;;686846;28;1341;-93
2022/08/01 00:52:44;;;;;;;;;;;29.50;32.20;;;;;;686383;28;1222;-95
2022/08/01 00:53:04;;;;;;;;;;;29.50;32.20;;;;;;689207;28;1258;-90
2022/08/01 00:53:25;;;;;;;;;;;29.50;32.30;;;;;;686853;28;1222;-96
2022/08/01 00:53:49;;;;;;;;;;;29.50;32.60;;;;;;684094;28;1387;-95
2022/08/01 00:54:09;;;;;;;;;;;29.50;32.40;;;;;;681905;29;1373;-95
2022/08/01 00:54:30;;;;;;;;;;;29.50;32.40;;;;;;683237;29;1241;-94
2022/08/01 00:54:51;;;;;;;;;;;29.50;32.40;;;;;;681287;29;1194;-92
2022/08/01 00:55:12;;;;;;;;;;;29.50;32.50;;;;;;685604;28;1195;-94
2022/08/01 00:55:32;;;;;;;;;;;29.50;32.30;;;;;;684107;28;1240;-90
2022/08/01 00:55:53;;;;;;;;;;;29.50;32.50;;;;;;683586;29;1293;-94
2022/08/01 00:56:14;;;;;;;;;;;29.50;32.50;;;;;;680785;29;1195;-93
2022/08/01 00:56:34;;;;;;;;;;;29.50;32.50;;;;;;683097;29;1329;-93
2022/08/01 00:56:55;;;;;;;;;;;29.50;32.50;;;;;;680983;29;1303;-92
2022/08/01 00:57:17;;;;;;;;;;;29.50;32.30;;;;;;683832;29;1887;-94
2022/08/01 00:57:38;;;;;;;;;;;29.50;32.40;;;;;;684137;29;1196;-95
2022/08/01 00:57:59;;;;;;;;;;;29.50;32.60;;;;;;684129;29;1315;-93
2022/08/01 00:58:20;;;;;;;;;;;29.50;32.80;;;;;;683241;28;1320;-91
2022/08/01 00:58:40;;;;;;;;;;;29.50;32.50;;;;;;683844;29;1263;-92
2022/08/01 00:59:03;;;;;;;;;;;29.50;32.70;;;;;;683069;29;1284;-90
2022/08/01 00:59:24;;;;;;;;;;;29.50;32.50;;;;;;683224;29;1242;-92
2022/08/01 00:59:44;;;;;;;;;;;29.50;32.20;;;;;;683640;29;1391;-94
2022/08/01 01:00:06;;;;;;;;;;;29.50;32.70;;;;;;683892;29;1312;-92
2022/08/01 01:00:30;;;;;;;;;;;29.50;32.30;;;;;;682970;29;1389;-95
2022/08/01 01:01:11;;;;;;;;;;;29.50;32.50;;;;;;677953;29;1054;-93
2022/08/01 01:01:32;;;;;;;;;;;29.50;32.30;;;;;;678852;29;1335;-95
2022/08/01 01:01:52;;;;;;;;;;;29.50;32.30;;;;;;678827;29;1108;-96
2022/08/01 01:02:17;;;;;;;;;;;29.50;32.50;;;;;;681489;29;1282;-96
2022/08/01 01:02:45;;;;;;;;;;;29.50;32.50;;;;;;681703;29;1275;-96
2022/08/01 01:03:05;;;;;;;;;;;29.50;32.20;;;;;;681532;29;1341;-95
2022/08/01 01:03:26;;;;;;;;;;;29.50;32.20;;;;;;681122;29;1458;-94
2022/08/01 01:03:48;;;;;;;;;;;29.50;32.30;;;;;;680757;29;1253;-95
2022/08/01 01:04:11;;;;;;;;;;;29.40;32.20;;;;;;682865;29;1202;-93
2022/08/01 01:04:32;;;;;;;;;;;29.50;32.40;;;;;;683234;29;1206;-92
2022/08/01 01:04:53;;;;;;;;;;;29.50;32.30;;;;;;683523;29;1143;-94
2022/08/01 01:05:13;;;;;;;;;;;29.40;32.30;;;;;;680865;29;1219;-94
2022/08/01 01:05:37;;;;;;;;;;;29.50;32.50;;;;;;678334;29;1373;-95
2022/08/01 01:06:04;;;;;;;;;;;29.50;32.50;;;;;;680774;29;1225;-95
2022/08/01 01:06:49;;;;;;;;;;;29.70;33.60;;;;;;679615;29;1252;-93
2022/08/01 01:07:19;;;;;;;;;;;29.50;32.60;;;;;;684104;29;950;-96
2022/08/01 01:07:45;;;;;;;;;;;29.70;33.70;;;;;;686434;28;1368;-94
2022/08/01 01:08:13;;;;;;;;;;;25.50;30.50;;;;;;686266;28;1271;-95
2022/08/01 01:08:57;;;;;;;;;;;29.70;33.60;;;;;;686049;28;1258;-94
2022/08/01 01:09:29;;;;;;;;;;;29.50;32.60;;;;;;678173;29;1151;-93
2022/08/01 01:10:00;;;;;;;;;;;29.60;33.60;;;;;;678519;29;1329;-94
2022/08/01 01:10:22;;;;;;;;;;;29.50;32.60;;;;;;677860;29;1367;-93
2022/08/01 01:11:04;;;;;;;;;;;29.50;32.60;;;;;;675740;29;1369;-94
2022/08/01 01:11:30;;;;;;;;;;;29.50;32.60;;;;;;675279;29;1417;-94
2022/08/01 01:11:53;;;;;;;;;;;29.50;32.70;;;;;;673589;29;1358;-95
2022/08/01 01:12:32;;;;;;;;;;;29.40;33.50;;;;;;677282;29;1278;-94
2022/08/01 01:13:01;;;;;;;;;;;29.50;32.70;;;;;;678275;29;1273;-93
2022/08/01 01:13:24;;;;;;;;;;;29.60;33.90;;;;;;675125;29;1421;-95
2022/08/01 01:13:49;;;;;;;;;;;29.90;34.20;;;;;;676724;29;1446;-94
2022/08/01 01:14:13;;;;;;;;;;;29.40;32.90;;;;;;673020;29;1298;-95
2022/08/01 01:14:44;;;;;;;;;;;29.50;32.80;;;;;;672985;29;1183;-95
2022/08/01 01:15:16;;;;;;;;;;;29.40;32.90;;;;;;673401;29;1168;-93
2022/08/01 01:15:49;;;;;;;;;;;29.40;33.70;;;;;;671560;29;1244;-95
2022/08/01 01:16:11;;;;;;;;;;;29.60;33.80;;;;;;675487;29;1298;-95
2022/08/01 01:16:32;;;;;;;;;;;29.40;32.60;;;;;;673420;29;1508;-95
2022/08/01 01:16:53;;;;;;;;;;;29.40;32.60;;;;;;675448;29;1144;-92
2022/08/01 01:17:16;;;;;;;;;;;29.40;32.70;;;;;;675299;29;1906;-93
2022/08/01 01:17:38;;;;;;;;;;;29.40;32.80;;;;;;678171;29;1132;-96
2022/08/01 01:18:03;;;;;;;;;;;29.40;32.90;;;;;;679843;29;1326;-94
2022/08/01 01:18:25;;;;;;;;;;;29.40;33.10;;;;;;679316;29;1207;-94
2022/08/01 01:18:51;;;;;;;;;;;29.40;33.10;;;;;;679076;29;1091;-93
2022/08/01 01:19:15;;;;;;;;;;;29.50;33.90;;;;;;678674;29;1517;-94
2022/08/01 01:19:38;;;;;;;;;;;29.40;32.80;;;;;;680829;29;1397;-95
2022/08/01 01:20:00;;;;;;;;;;;29.50;33.20;;;;;;675502;29;1274;-95
2022/08/01 01:20:23;;;;;;;;;;;29.40;33.20;;;;;;671179;29;1227;-93
2022/08/01 01:20:45;;;;;;;;;;;29.50;33.00;;;;;;674044;29;1310;-93
2022/08/01 01:21:18;;;;;;;;;;;29.50;32.80;;;;;;672202;29;1305;-93
2022/08/01 01:21:53;;;;;;;;;;;29.80;33.90;;;;;;673539;29;1227;-91
2022/08/01 01:22:19;;;;;;;;;;;29.50;33.90;;;;;;677744;29;1360;-93
2022/08/01 01:22:46;;;;;;;;;;;29.70;34.00;;;;;;678925;29;1203;-91
2022/08/01 01:23:24;;;;;;;;;;;29.50;34.10;;;;;;679320;29;1308;-95
2022/08/01 01:23:44;;;;;;;;;;;29.60;34.40;;;;;;676141;29;1274;-93
2022/08/01 01:24:11;;;;;;;;;;;29.50;32.80;;;;;;677589;29;1318;-95
2022/08/01 01:24:50;;;;;;;;;;;26.00;31.10;;;;;;681881;29;1354;-91
2022/08/01 01:25:48;;;;;;;;;;;30.20;34.40;;;;;;678602;29;958;-94
2022/08/01 01:26:09;;;;;;;;;;;29.70;33.90;;;;;;675640;29;1151;-92
2022/08/01 01:26:38;;;;;;;;;;;29.50;32.80;;;;;;675785;29;1189;-94
2022/08/01 01:27:16;;;;;;;;;;;29.50;33.60;;;;;;678692;29;1410;-95
2022/08/01 01:27:47;;;;;;;;;;;29.50;32.80;;;;;;679981;29;1253;-95
2022/08/01 01:28:26;;;;;;;;;;;29.50;33.70;;;;;;679441;29;1258;-95
2022/08/01 01:29:08;;;;;;;;;;;29.70;34.00;;;;;;677746;29;1219;-95
2022/08/01 01:29:33;;;;;;;;;;;25.80;31.10;;;;;;677860;29;1348;-95
2022/08/01 01:29:59;;;;;;;;;;;29.60;34.20;;;;;;680135;29;1341;-94
2022/08/01 01:30:23;;;;;;;;;;;29.50;33.00;;;;;;679970;29;1325;-93
2022/08/01 01:30:47;;;;;;;;;;;29.50;33.00;;;;;;678301;29;1303;-91
2022/08/01 01:31:11;;;;;;;;;;;29.50;33.00;;;;;;679601;29;1223;-95
2022/08/01 01:31:40;;;;;;;;;;;29.50;32.90;;;;;;680042;29;1480;-93
2022/08/01 01:32:03;;;;;;;;;;;29.60;33.80;;;;;;674489;29;1279;-94
2022/08/01 01:32:33;;;;;;;;;;;29.50;33.70;;;;;;677459;29;1597;-94
2022/08/01 01:33:00;;;;;;;;;;;30.00;34.10;;;;;;677359;29;1301;-92
2022/08/01 01:33:23;;;;;;;;;;;29.80;33.90;;;;;;678007;29;1761;-91
2022/08/01 01:34:03;;;;;;;;;;;29.70;33.80;;;;;;678253;29;1693;-92
2022/08/01 01:34:49;;;;;;;;;;;30.20;34.30;;;;;;677936;29;1305;-95
2022/08/01 01:35:26;;;;;;;;;;;29.60;34.20;;;;;;676853;29;1515;-91
2022/08/01 01:36:05;;;;;;;;;;;29.90;34.10;;;;;;673313;29;1161;-93
2022/08/01 01:36:35;;;;;;;;;;;29.50;32.80;;;;;;676894;29;902;-95
2022/08/01 01:36:58;;;;;;;;;;;29.60;32.90;;;;;;674709;29;1425;-95
2022/08/01 01:37:20;;;;;;;;;;;29.50;32.70;;;;;;674395;29;1871;-94
2022/08/01 01:37:41;;;;;;;;;;;29.50;32.80;;;;;;677560;29;1334;-96
2022/08/01 01:38:07;;;;;;;;;;;29.50;33.50;;;;;;676863;29;1375;-96
2022/08/01 01:38:29;;;;;;;;;;;29.50;32.90;;;;;;676665;29;1237;-96
2022/08/01 01:38:53;;;;;;;;;;;29.50;33.00;;;;;;679983;29;1347;-95
2022/08/01 01:39:16;;;;;;;;;;;29.50;32.80;;;;;;677121;29;1228;-95
2022/08/01 01:39:38;;;;;;;;;;;29.50;32.90;;;;;;675286;29;1353;-96
2022/08/01 01:40:02;;;;;;;;;;;29.60;32.80;;;;;;675041;29;1393;-96
2022/08/01 01:40:24;;;;;;;;;;;29.80;33.80;;;;;;672611;29;1444;-93
2022/08/01 01:40:46;;;;;;;;;;;29.50;33.20;;;;;;674296;29;1257;-94
2022/08/01 01:41:07;;;;;;;;;;;29.50;32.70;;;;;;676765;29;1473;-96
2022/08/01 01:41:33;;;;;;;;;;;31.80;34.60;;;;;;679797;29;1417;-95
2022/08/01 01:41:57;;;;;;;;;;;29.50;32.80;;;;;;681973;29;913;-96
2022/08/01 01:42:21;;;;;;;;;;;29.60;32.90;;;;;;680336;29;1373;-94
2022/08/01 01:42:43;;;;;;;;;;;29.50;32.90;;;;;;676497;29;1414;-95
2022/08/01 01:43:05;;;;;;;;;;;29.60;33.00;;;;;;677027;29;1328;-96
2022/08/01 01:43:26;;;;;;;;;;;29.60;32.70;;;;;;674120;29;1357;-95
2022/08/01 01:43:47;;;;;;;;;;;29.50;33.70;;;;;;671305;29;1306;-96
2022/08/01 01:44:09;;;;;;;;;;;29.60;32.80;;;;;;674273;29;1282;-94
2022/08/01 01:44:35;;;;;;;;;;;29.50;32.90;;;;;;677093;29;908;-96
2022/08/01 01:45:26;;;;;;;;;;;29.60;33.80;;;;;;688641;28;1308;-96
2022/08/01 01:47:46;;;;;;;;;;;29.80;34.00;;;;;;693656;28;1102;-94
2022/08/01 01:48:12;;;;;;;;;;;29.60;32.90;;;;;;690858;28;1419;-96
2022/08/01 01:48:39;;;;;;;;;;;29.60;32.70;;;;;;686027;29;1267;-91
2022/08/01 01:49:16;;;;;;;;;;;;;;;;;;;;;
2022/08/01 01:49:55;;;;;;;;;;;29.60;33.00;;;;;;681426;29;1366;-91
2022/08/01 01:50:36;;;;;;;;;;;29.60;33.80;;;;;;683543;29;977;-91
2022/08/01 01:51:02;;;;;;;;;;;29.60;32.80;;;;;;680996;29;1458;-94
2022/08/01 01:51:27;;;;;;;;;;;29.60;32.70;;;;;;678773;29;1409;-90
2022/08/01 01:52:09;;;;;;;;;;;29.60;32.70;;;;;;678426;29;1353;-94
2022/08/01 01:52:31;;;;;;;;;;;30.00;34.00;;;;;;678469;29;1264;-90
2022/08/01 01:53:10;;;;;;;;;;;30.20;34.10;;;;;;680024;29;1526;-96
2022/08/01 01:53:37;;;;;;;;;;;28.60;33.10;;;;;;681041;29;1425;-96
2022/08/01 01:54:32;;;;;;;;;;;29.60;33.70;;;;;;723187;23;1681;-96
2022/08/01 01:54:58;;;;;;;;;;;27.90;32.40;;;;;;691408;28;1366;-95
2022/08/01 01:55:37;;;;;;;;;;;29.60;32.80;;;;;;692667;28;1213;-96
2022/08/01 01:56:05;;;;;;;;;;;25.90;34.20;;;;;;694562;28;978;-94
2022/08/01 01:56:30;;;;;;;;;;;29.60;32.70;;;;;;694554;28;1002;-96
2022/08/01 01:57:12;;;;;;;;;;;30.30;33.30;;;;;;694471;28;1353;-96
2022/08/01 01:57:51;;;;;;;;;;;29.40;33.50;;;;;;697499;28;1438;-94
2022/08/01 01:58:15;;;;;;;;;;;29.60;32.70;;;;;;695156;28;953;-95
2022/08/01 01:58:39;;;;;;;;;;;29.60;33.80;;;;;;694724;28;1358;-95
2022/08/01 01:59:07;;;;;;;;;;;29.60;32.80;;;;;;691946;28;1260;-96
2022/08/01 01:59:30;;;;;;;;;;;29.60;32.80;;;;;;692030;28;1214;-96
2022/08/01 01:59:53;;;;;;;;;;;29.60;32.60;;;;;;693492;28;1286;-96
2022/08/01 02:00:17;;;;;;;;;;;29.60;32.80;;;;;;692086;28;1230;-96
2022/08/01 02:00:39;;;;;;;;;;;29.80;33.80;;;;;;694367;28;1379;-96
2022/08/01 02:01:01;;;;;;;;;;;29.60;32.60;;;;;;694381;28;1459;-96
2022/08/01 02:01:25;;;;;;;;;;;29.70;39.20;;;;;;691772;28;1411;-96
2022/08/01 02:01:48;;;;;;;;;;;29.60;32.70;;;;;;689214;28;1291;-95
2022/08/01 02:02:09;;;;;;;;;;;29.60;32.70;;;;;;688381;28;1320;-95
2022/08/01 02:02:30;;;;;;;;;;;29.60;32.70;;;;;;686298;29;1253;-96
2022/08/01 02:02:51;;;;;;;;;;;29.60;32.70;;;;;;687199;28;1330;-93
2022/08/01 02:03:15;;;;;;;;;;;29.60;32.70;;;;;;689502;28;1423;-95
2022/08/01 02:03:37;;;;;;;;;;;29.60;32.60;;;;;;691121;28;1328;-96
2022/08/01 02:03:59;;;;;;;;;;;29.60;32.70;;;;;;689900;28;1316;-93
2022/08/01 02:04:21;;;;;;;;;;;29.60;32.80;;;;;;691205;28;1225;-92
2022/08/01 02:04:43;;;;;;;;;;;27.10;37.30;;;;;;688304;28;1332;-95
2022/08/01 02:05:05;;;;;;;;;;;29.60;32.40;;;;;;688545;28;1287;-96
2022/08/01 02:05:27;;;;;;;;;;;29.60;32.40;;;;;;688342;28;1292;-95
2022/08/01 02:05:48;;;;;;;;;;;29.00;32.80;;;;;;689045;28;1213;-93
2022/08/01 02:06:11;;;;;;;;;;;29.60;32.70;;;;;;690398;28;1314;-94
2022/08/01 02:06:35;;;;;;;;;;;29.60;32.60;;;;;;690544;28;1394;-95
2022/08/01 02:06:56;;;;;;;;;;;29.60;33.70;;;;;;691449;28;1380;-95
2022/08/01 02:07:19;;;;;;;;;;;29.60;32.30;;;;;;692298;28;1238;-96
2022/08/01 02:07:40;;;;;;;;;;;29.60;32.60;;;;;;689886;28;1433;-96
2022/08/01 02:08:04;;;;;;;;;;;29.60;32.70;;;;;;688842;28;1158;-94
2022/08/01 02:08:25;;;;;;;;;;;29.60;32.60;;;;;;691310;28;1196;-95
2022/08/01 02:08:46;;;;;;;;;;;29.60;32.50;;;;;;688653;28;1182;-95
2022/08/01 02:09:08;;;;;;;;;;;29.60;32.70;;;;;;688710;28;1238;-95
2022/08/01 02:09:32;;;;;;;;;;;29.60;32.50;;;;;;689993;28;1390;-93
2022/08/01 02:09:54;;;;;;;;;;;29.60;32.60;;;;;;690259;28;1291;-95
2022/08/01 02:10:15;;;;;;;;;;;29.60;32.70;;;;;;691008;28;1339;-94
2022/08/01 02:10:37;;;;;;;;;;;29.60;32.90;;;;;;690930;28;1335;-95
2022/08/01 02:11:38;;;;;;;;;;;31.00;33.80;;;;;;692910;28;665;-94
2022/08/01 02:11:59;;;;;;;;;;;29.50;32.60;;;;;;689894;28;1265;-95
2022/08/01 02:12:21;;;;;;;;;;;29.60;32.90;;;;;;688954;28;1196;-96
2022/08/01 02:12:44;;;;;;;;;;;29.60;35.40;;;;;;689139;28;1397;-95
2022/08/01 02:13:06;;;;;;;;;;;29.50;32.60;;;;;;688759;28;1382;-95
2022/08/01 02:13:27;;;;;;;;;;;29.50;37.50;;;;;;688962;28;1217;-96
2022/08/01 02:13:53;;;;;;;;;;;29.60;32.90;;;;;;689665;28;1327;-96
2022/08/01 02:14:15;;;;;;;;;;;29.60;32.70;;;;;;691353;28;1272;-94
2022/08/01 02:14:36;;;;;;;;;;;29.50;32.70;;;;;;693003;28;1272;-96
2022/08/01 02:14:58;;;;;;;;;;;29.00;32.40;;;;;;691191;28;1430;-96
2022/08/01 02:15:19;;;;;;;;;;;28.80;33.90;;;;;;691492;28;1368;-94
2022/08/01 02:15:40;;;;;;;;;;;29.50;33.10;;;;;;691500;28;1231;-96
2022/08/01 02:16:31;;;;;;;;;;;29.50;32.50;;;;;;691433;28;1327;-95
2022/08/01 02:16:57;;;;;;;;;;;29.70;33.60;;;;;;694097;28;1370;-96
2022/08/01 02:17:19;;;;;;;;;;;29.50;32.60;;;;;;691460;28;1906;-96
2022/08/01 02:17:43;;;;;;;;;;;29.50;32.90;;;;;;691467;28;1332;-96
2022/08/01 02:18:05;;;;;;;;;;;29.50;32.70;;;;;;688582;28;1386;-95
2022/08/01 02:18:26;;;;;;;;;;;29.50;32.60;;;;;;685993;28;1402;-95
2022/08/01 02:18:47;;;;;;;;;;;29.50;32.40;;;;;;688038;28;1216;-96
2022/08/01 02:19:08;;;;;;;;;;;33.60;36.50;;;;;;686254;28;1223;-95
2022/08/01 02:19:29;;;;;;;;;;;29.50;35.80;;;;;;686469;28;1383;-96
2022/08/01 02:19:50;;;;;;;;;;;28.20;34.10;;;;;;684408;28;1204;-96
2022/08/01 02:20:11;;;;;;;;;;;29.60;40.80;;;;;;689782;28;1428;-96
2022/08/01 02:20:34;;;;;;;;;;;29.50;32.70;;;;;;689516;28;1363;-96
2022/08/01 02:20:55;;;;;;;;;;;27.90;36.20;;;;;;689147;28;1239;-96
2022/08/01 02:21:23;;;;;;;;;;;29.50;34.90;;;;;;689186;28;1480;-96
2022/08/01 02:21:45;;;;;;;;;;;29.70;33.70;;;;;;687476;28;1260;-95
2022/08/01 02:22:14;;;;;;;;;;;29.50;32.70;;;;;;688449;28;1390;-96
2022/08/01 02:22:43;;;;;;;;;;;30.20;34.00;;;;;;691982;28;1219;-96
2022/08/01 02:23:27;;;;;;;;;;;28.80;32.90;;;;;;691978;28;1274;-96
2022/08/01 02:24:09;;;;;;;;;;;29.50;33.00;;;;;;693880;28;984;-96
2022/08/01 02:24:45;;;;;;;;;;;28.60;33.20;;;;;;691630;28;1430;-96
2022/08/01 02:25:14;;;;;;;;;;;28.40;32.70;;;;;;690497;28;1679;-96
2022/08/01 02:25:50;;;;;;;;;;;29.80;38.80;;;;;;691444;28;1043;-96
2022/08/01 02:26:23;;;;;;;;;;;29.50;33.00;;;;;;695522;28;1076;-96
2022/08/01 02:26:47;;;;;;;;;;;28.50;36.80;;;;;;687043;28;1624;-96
2022/08/01 02:27:10;;;;;;;;;;;29.90;34.20;;;;;;689785;28;1444;-96
2022/08/01 02:27:44;;;;;;;;;;;29.50;36.20;;;;;;689257;28;1401;-95
2022/08/01 02:28:09;;;;;;;;;;;29.70;33.60;;;;;;689862;28;1217;-96
2022/08/01 02:28:33;;;;;;;;;;;29.50;37.50;;;;;;690817;28;1506;-96
2022/08/01 02:29:02;;;;;;;;;;;29.30;38.80;;;;;;692584;28;1252;-96
2022/08/01 02:29:35;;;;;;;;;;;29.50;37.40;;;;;;692694;28;1367;-96
2022/08/01 02:29:58;;;;;;;;;;;29.90;34.00;;;;;;692838;28;1245;-96
2022/08/01 02:30:25;;;;;;;;;;;29.60;33.80;;;;;;690051;28;1387;-96
2022/08/01 02:30:48;;;;;;;;;;;29.70;34.00;;;;;;690678;28;1323;-96
2022/08/01 02:31:22;;;;;;;;;;;29.40;32.70;;;;;;688498;28;1097;-96
2022/08/01 02:31:49;;;;;;;;;;;29.60;34.00;;;;;;691397;28;1564;-96
2022/08/01 02:32:15;;;;;;;;;;;29.00;33.50;;;;;;693020;28;1594;-96
2022/08/01 02:32:56;;;;;;;;;;;29.60;38.60;;;;;;693383;28;978;-96
2022/08/01 02:33:31;;;;;;;;;;;29.40;33.70;;;;;;693694;28;1359;-96
2022/08/01 02:33:58;;;;;;;;;;;29.20;33.60;;;;;;693265;28;1528;-96
2022/08/01 02:34:27;;;;;;;;;;;29.70;33.90;;;;;;693221;28;1240;-96
2022/08/01 02:34:49;;;;;;;;;;;29.40;33.60;;;;;;690363;28;1385;-96
2022/08/01 02:35:13;;;;;;;;;;;29.60;37.10;;;;;;692576;28;1256;-96
2022/08/01 02:35:36;;;;;;;;;;;29.40;32.50;;;;;;687384;28;1329;-95
2022/08/01 02:35:59;;;;;;;;;;;29.50;35.80;;;;;;687589;28;942;-95
2022/08/01 02:36:26;;;;;;;;;;;29.40;32.40;;;;;;690000;28;1297;-96
2022/08/01 02:36:49;;;;;;;;;;;29.50;33.80;;;;;;692743;28;1229;-96
2022/08/01 02:37:10;;;;;;;;;;;29.40;37.90;;;;;;690055;28;1973;-96
2022/08/01 02:37:36;;;;;;;;;;;29.40;32.90;;;;;;690265;28;1231;-95
2022/08/01 02:37:59;;;;;;;;;;;27.40;36.00;;;;;;690322;28;1123;-96
2022/08/01 02:38:23;;;;;;;;;;;29.40;32.60;;;;;;690804;28;975;-96
2022/08/01 02:39:00;;;;;;;;;;;29.40;32.60;;;;;;692811;28;1293;-95
2022/08/01 02:39:37;;;;;;;;;;;29.60;33.70;;;;;;695409;28;1373;-96
2022/08/01 02:40:16;;;;;;;;;;;29.40;32.60;;;;;;696109;28;932;-96
2022/08/01 02:40:51;;;;;;;;;;;29.80;33.80;;;;;;698374;28;909;-95
2022/08/01 02:41:26;;;;;;;;;;;28.50;32.90;;;;;;695317;28;1462;-96
2022/08/01 02:42:00;;;;;;;;;;;29.60;37.50;;;;;;693527;28;1228;-96
2022/08/01 02:42:23;;;;;;;;;;;29.40;37.60;;;;;;689065;28;1313;-96
2022/08/01 02:42:46;;;;;;;;;;;29.30;32.50;;;;;;689095;28;1311;-95
2022/08/01 02:43:08;;;;;;;;;;;29.40;36.80;;;;;;688958;28;1423;-96
2022/08/01 02:43:30;;;;;;;;;;;29.40;35.90;;;;;;691943;28;1197;-95
2022/08/01 02:43:52;;;;;;;;;;;29.40;35.90;;;;;;691750;28;1312;-94
2022/08/01 02:44:16;;;;;;;;;;;29.40;32.40;;;;;;689189;28;1395;-96
2022/08/01 02:44:39;;;;;;;;;;;29.40;32.50;;;;;;689076;28;1383;-96
2022/08/01 02:45:01;;;;;;;;;;;29.50;37.20;;;;;;686366;28;1281;-94
2022/08/01 02:45:24;;;;;;;;;;;29.40;32.50;;;;;;688073;28;1300;-95
2022/08/01 02:45:47;;;;;;;;;;;26.60;34.90;;;;;;688210;28;1197;-96
2022/08/01 02:46:09;;;;;;;;;;;29.40;36.90;;;;;;688101;28;1099;-96
2022/08/01 02:46:36;;;;;;;;;;;29.30;32.40;;;;;;686255;28;1202;-96